Time;durP1;ratioP1;P1;durP2;ratioP2;P2;SDS_P1;SDS_P2;PMS_P1;PMS_P2;Temp;Humidity;BMP_temperature;BMP_pressure;BME280_temperature;BME280_humidity;BME280_pressure;Samples;Min_cycle;Max_cycle;Signal;HPM_P1;HPM_P2
2022/10/15 00:01:13;;;;;;;6.22;0.90;;;24.00;47.40;;;;;;5046431;28;20024;-58
2022/10/15 00:03:42;;;;;;;2.45;0.80;;;24.20;49.00;;;;;;5084357;28;20041;-58
2022/10/15 00:06:12;;;;;;;1.48;0.43;;;23.70;47.50;;;;;;5059040;28;20037;-58
2022/10/15 00:08:40;;;;;;;3.50;1.02;;;23.20;48.40;;;;;;5053075;28;20370;-58
2022/10/15 00:11:14;;;;;;;4.13;1.02;;;23.00;49.30;;;;;;5057728;28;20025;-58
2022/10/15 00:13:41;;;;;;;2.67;1.02;;;23.00;48.20;;;;;;5038949;28;20517;-58
2022/10/15 00:16:13;;;;;;;1.13;0.50;;;23.10;47.40;;;;;;5058732;28;20032;-58
2022/10/15 00:18:41;;;;;;;2.72;0.70;;;23.30;49.00;;;;;;5054393;28;20029;-58
2022/10/15 00:21:10;;;;;;;1.73;0.82;;;23.20;47.80;;;;;;5055710;28;20021;-58
2022/10/15 00:23:38;;;;;;;2.67;0.68;;;23.40;46.90;;;;;;5052912;28;20017;-58
2022/10/15 00:26:11;;;;;;;4.20;0.70;;;23.50;47.40;;;;;;5057490;28;20078;-58
2022/10/15 00:28:38;;;;;;;2.80;0.85;;;23.70;52.20;;;;;;5060276;28;20377;-58
2022/10/15 00:31:14;;;;;;;2.75;0.55;;;23.80;47.50;;;;;;5055105;28;20028;-59
2022/10/15 00:33:42;;;;;;;4.35;0.70;;;23.70;47.40;;;;;;5051230;28;20404;-59
2022/10/15 00:36:16;;;;;;;3.63;0.60;;;24.10;48.90;;;;;;5061760;28;20071;-58
2022/10/15 00:38:43;;;;;;;1.50;0.40;;;24.40;45.40;;;;;;5062206;28;20381;-59
2022/10/15 00:41:17;;;;;;;2.33;0.63;;;24.40;44.00;;;;;;5055035;28;20025;-59
2022/10/15 00:43:48;;;;;;;1.98;0.70;;;24.60;44.30;;;;;;5065381;28;20035;-58
2022/10/15 00:46:22;;;;;;;3.63;0.98;;;24.70;42.90;;;;;;5058499;28;20052;-58
2022/10/15 00:48:59;;;;;;;1.75;0.57;;;24.70;44.00;;;;;;5051503;28;20611;-58
2022/10/15 00:51:32;;;;;;;2.05;0.45;;;24.90;44.40;;;;;;5050849;28;20041;-65
2022/10/15 00:54:00;;;;;;;3.65;0.82;;;25.10;45.30;;;;;;5052551;28;20029;-60
2022/10/15 00:56:31;;;;;;;4.18;1.23;;;25.00;41.40;;;;;;5054128;28;20021;-58
2022/10/15 00:58:59;;;;;;;2.45;0.70;;;25.30;47.10;;;;;;5050664;28;20494;-58
2022/10/15 01:01:27;;;;;;;3.33;0.60;;;25.20;45.20;;;;;;5064385;28;20028;-59
2022/10/15 01:03:56;;;;;;;2.88;0.73;;;25.20;45.40;;;;;;5053930;28;20021;-59
2022/10/15 01:06:24;;;;;;;2.97;0.75;;;25.40;42.30;;;;;;5057772;28;20033;-59
2022/10/15 01:08:52;;;;;;;3.08;1.23;;;25.60;46.20;;;;;;5055746;28;20033;-58
2022/10/15 01:11:54;;;;;;;1.25;0.50;;;25.80;44.00;;;;;;5053353;28;20030;-58
2022/10/15 01:15:00;;;;;;;2.58;1.02;;;25.40;41.40;;;;;;5040919;28;20033;-58
2022/10/15 01:17:51;;;;;;;2.40;0.68;;;25.40;41.00;;;;;;5050613;28;20037;-63
2022/10/15 01:20:55;;;;;;;2.13;0.60;;;25.00;42.00;;;;;;5048772;28;20045;-59
2022/10/15 01:23:59;;;;;;;2.97;0.70;;;25.10;43.10;;;;;;5066444;28;20024;-60
2022/10/15 01:26:54;;;;;;;2.55;0.90;;;25.00;42.70;;;;;;5055444;28;20514;-58
2022/10/15 01:29:56;;;;;;;1.75;0.70;;;24.90;48.40;;;;;;5066741;28;20028;-58
2022/10/15 01:33:00;;;;;;;5.32;0.80;;;25.10;42.50;;;;;;5062509;28;20673;-57
2022/10/15 01:36:03;;;;;;;2.30;0.40;;;25.30;42.20;;;;;;5054217;28;20033;-66
2022/10/15 01:38:45;;;;;;;3.03;0.68;;;25.40;42.90;;;;;;5040434;28;20037;-58
2022/10/15 01:41:19;;;;;;;2.85;0.60;;;25.30;43.60;;;;;;5054158;28;20027;-57
2022/10/15 01:44:29;;;;;;;2.38;0.73;;;25.50;41.30;;;;;;5066157;28;20385;-57
2022/10/15 01:47:20;;;;;;;1.73;0.50;;;25.40;43.70;;;;;;5051368;28;20055;-58
2022/10/15 01:49:49;;;;;;;3.08;0.90;;;25.50;41.40;;;;;;5052038;28;20238;-57
2022/10/15 01:52:31;;;;;;;2.75;0.60;;;25.30;42.40;;;;;;5060194;28;20051;-57
2022/10/15 01:55:00;;;;;;;3.97;0.88;;;25.40;42.90;;;;;;5055138;28;20477;-58
2022/10/15 01:57:29;;;;;;;2.95;0.70;;;25.40;42.40;;;;;;5062815;28;20064;-66
2022/10/15 01:59:57;;;;;;;2.95;0.60;;;25.50;41.90;;;;;;5061445;28;20067;-61
2022/10/15 02:02:25;;;;;;;1.35;0.55;;;25.40;43.70;;;;;;5047467;28;20017;-62
2022/10/15 02:04:52;;;;;;;2.47;0.73;;;25.20;43.10;;;;;;5045463;28;20029;-61
2022/10/15 02:08:14;;;;;;;5.45;0.85;;;25.10;43.00;;;;;;5049843;28;21011;-60
2022/10/15 02:10:45;;;;;;;5.07;0.80;;;25.00;41.70;;;;;;4995387;28;20042;-63
2022/10/15 02:13:36;;;;;;;3.58;0.95;;;25.20;42.40;;;;;;5038218;28;20033;-62
2022/10/15 02:16:11;;;;;;;1.92;0.70;;;25.40;41.60;;;;;;5046692;28;20040;-61
2022/10/15 02:19:00;;;;;;;5.75;0.70;;;25.80;43.30;;;;;;5047043;28;20035;-62
2022/10/15 02:21:43;;;;;;;2.65;0.57;;;26.20;43.50;;;;;;5051987;28;20036;-64
2022/10/15 02:24:15;;;;;;;2.35;0.70;;;25.90;41.70;;;;;;5059150;28;20447;-61
2022/10/15 02:26:44;;;;;;;2.78;0.73;;;25.90;41.80;;;;;;5044895;28;20037;-61
2022/10/15 02:29:16;;;;;;;3.20;0.75;;;25.40;42.10;;;;;;5049894;28;20032;-64
2022/10/15 02:31:46;;;;;;;3.83;0.98;;;25.40;43.70;;;;;;5047691;28;20468;-61
2022/10/15 02:34:20;;;;;;;3.22;1.13;;;25.20;42.30;;;;;;5041123;28;20080;-63
2022/10/15 02:36:48;;;;;;;5.05;1.08;;;25.40;43.80;;;;;;5038957;28;20310;-62
2022/10/15 02:39:25;;;;;;;6.03;1.00;;;25.60;43.10;;;;;;5061591;28;20513;-62
2022/10/15 02:41:54;;;;;;;7.38;0.85;;;25.70;43.20;;;;;;5050138;28;20484;-62
2022/10/15 02:44:21;;;;;;;4.60;0.95;;;25.90;47.60;;;;;;5040560;28;20025;-62
2022/10/15 02:46:48;;;;;;;3.22;1.10;;;25.90;42.70;;;;;;5045201;28;20325;-62
2022/10/15 02:49:16;;;;;;;4.35;1.65;;;25.60;43.20;;;;;;5050287;28;20021;-63
2022/10/15 02:51:43;;;;;;;4.97;0.90;;;25.70;42.00;;;;;;5057239;28;20098;-62
2022/10/15 02:54:10;;;;;;;7.78;2.40;;;25.80;41.80;;;;;;5045884;28;20033;-63
2022/10/15 02:56:38;;;;;;;5.45;1.00;;;25.90;42.70;;;;;;5056540;28;20485;-62
2022/10/15 02:59:06;;;;;;;5.07;1.42;;;26.00;41.30;;;;;;5043184;28;20041;-61
2022/10/15 03:01:34;;;;;;;4.07;1.35;;;26.10;45.10;;;;;;5046509;28;20025;-61
2022/10/15 03:04:02;;;;;;;5.80;0.98;;;26.40;41.90;;;;;;5055913;28;20028;-63
2022/10/15 03:06:29;;;;;;;1.60;0.70;;;26.60;42.70;;;;;;5046060;28;20040;-63
2022/10/15 03:08:56;;;;;;;4.60;0.80;;;26.50;42.10;;;;;;5052318;28;20021;-63
2022/10/15 03:11:24;;;;;;;2.92;0.80;;;26.10;41.30;;;;;;5061848;28;20086;-64
2022/10/15 03:13:51;;;;;;;3.35;0.63;;;26.00;41.90;;;;;;5049369;28;20023;-62
2022/10/15 03:16:18;;;;;;;3.97;0.70;;;26.20;43.10;;;;;;5053933;28;20500;-61
2022/10/15 03:18:45;;;;;;;2.30;0.50;;;26.00;43.00;;;;;;5048747;28;20036;-63
2022/10/15 03:21:12;;;;;;;5.00;0.80;;;25.90;42.70;;;;;;5053296;28;20025;-62
2022/10/15 03:23:40;;;;;;;4.20;1.08;;;25.80;42.30;;;;;;5059254;28;20174;-62
2022/10/15 03:26:07;;;;;;;4.05;1.00;;;25.90;43.60;;;;;;5047277;28;20047;-64
2022/10/15 03:28:34;;;;;;;2.40;0.70;;;26.00;41.10;;;;;;5053494;28;20031;-64
2022/10/15 03:31:01;;;;;;;5.90;1.63;;;25.90;42.30;;;;;;5053573;28;20017;-62
2022/10/15 03:33:29;;;;;;;2.25;0.57;;;26.00;44.00;;;;;;5064317;28;20035;-62
2022/10/15 03:35:56;;;;;;;3.78;1.00;;;26.30;42.50;;;;;;5055563;28;20024;-62
2022/10/15 03:38:23;;;;;;;3.88;0.70;;;26.60;45.20;;;;;;5051689;28;20021;-61
2022/10/15 03:40:50;;;;;;;4.32;0.95;;;26.70;44.00;;;;;;5060531;28;20066;-63
2022/10/15 03:43:18;;;;;;;5.53;1.27;;;26.70;41.10;;;;;;5053509;28;20103;-65
2022/10/15 03:45:45;;;;;;;6.18;0.80;;;26.60;41.90;;;;;;5063647;28;20040;-63
2022/10/15 03:48:12;;;;;;;3.45;0.85;;;26.40;40.50;;;;;;5060232;28;20107;-63
2022/10/15 03:50:39;;;;;;;4.40;1.00;;;26.00;41.40;;;;;;5061329;28;20048;-64
2022/10/15 03:53:07;;;;;;;3.25;1.35;;;25.60;40.90;;;;;;5049360;28;20033;-64
2022/10/15 03:55:34;;;;;;;3.45;0.90;;;25.40;41.50;;;;;;5044241;28;20086;-65
2022/10/15 03:58:01;;;;;;;1.90;0.50;;;25.30;42.30;;;;;;5050937;28;20470;-66
2022/10/15 04:00:29;;;;;;;5.65;2.13;;;25.30;43.00;;;;;;5054266;28;20091;-66
2022/10/15 04:02:56;;;;;;;5.00;1.20;;;25.70;44.60;;;;;;5058634;28;20746;-65
2022/10/15 04:05:23;;;;;;;3.05;0.80;;;26.10;45.10;;;;;;5070965;28;20025;-65
2022/10/15 04:07:51;;;;;;;4.95;1.10;;;26.10;42.60;;;;;;5050813;28;20071;-66
2022/10/15 04:10:18;;;;;;;2.95;1.00;;;26.20;41.70;;;;;;5044822;28;20049;-65
2022/10/15 04:12:45;;;;;;;4.47;1.15;;;26.20;42.90;;;;;;5047912;28;20397;-65
2022/10/15 04:15:13;;;;;;;4.43;0.90;;;26.10;42.60;;;;;;5054211;28;20024;-65
2022/10/15 04:17:40;;;;;;;3.63;0.68;;;26.10;43.20;;;;;;5051821;28;20082;-65
2022/10/15 04:20:08;;;;;;;5.68;1.20;;;26.10;43.60;;;;;;5044070;28;20075;-63
2022/10/15 04:22:37;;;;;;;5.55;0.85;;;26.30;42.50;;;;;;5048624;28;20363;-65
2022/10/15 04:25:04;;;;;;;3.00;0.40;;;26.10;42.60;;;;;;5058433;28;20477;-64
2022/10/15 04:27:32;;;;;;;1.42;0.50;;;25.90;42.40;;;;;;5049961;28;20044;-64
2022/10/15 04:29:59;;;;;;;3.13;0.60;;;25.90;42.20;;;;;;5048550;28;20490;-65
2022/10/15 04:32:26;;;;;;;6.70;1.05;;;25.90;41.40;;;;;;5054046;28;20033;-65
2022/10/15 04:34:53;;;;;;;4.28;0.90;;;25.80;42.10;;;;;;5045701;28;20328;-65
2022/10/15 04:37:20;;;;;;;4.60;0.88;;;25.60;42.20;;;;;;5060790;28;20021;-65
2022/10/15 04:39:48;;;;;;;2.53;0.70;;;25.50;41.40;;;;;;5062622;28;20094;-65
2022/10/15 04:42:15;;;;;;;3.60;1.10;;;25.40;42.00;;;;;;5052420;28;20409;-64
2022/10/15 04:44:42;;;;;;;4.85;0.80;;;25.50;42.70;;;;;;5054493;28;20075;-65
2022/10/15 04:47:09;;;;;;;1.88;0.60;;;25.50;42.50;;;;;;5037369;28;20047;-65
2022/10/15 04:49:37;;;;;;;1.80;0.70;;;25.30;43.80;;;;;;5051049;28;20074;-65
2022/10/15 04:52:04;;;;;;;9.43;1.27;;;25.40;44.10;;;;;;5047600;28;20052;-65
2022/10/15 04:54:31;;;;;;;4.43;1.55;;;25.40;43.00;;;;;;5045805;28;20029;-65
2022/10/15 04:56:59;;;;;;;3.20;0.77;;;25.30;42.80;;;;;;5050107;28;20021;-65
2022/10/15 04:59:26;;;;;;;3.10;0.90;;;25.10;42.40;;;;;;5054097;28;20020;-66
2022/10/15 05:01:53;;;;;;;6.28;0.75;;;25.10;42.10;;;;;;5042662;28;20809;-64
2022/10/15 05:04:20;;;;;;;1.70;0.50;;;24.90;42.70;;;;;;5046623;28;20390;-64
2022/10/15 05:06:48;;;;;;;7.80;1.08;;;25.00;44.90;;;;;;5053533;28;20060;-63
2022/10/15 05:09:15;;;;;;;2.08;0.70;;;25.10;43.60;;;;;;5043457;28;20023;-64
2022/10/15 05:11:42;;;;;;;5.32;1.08;;;25.20;42.80;;;;;;5051980;28;20090;-66
2022/10/15 05:14:09;;;;;;;4.03;0.80;;;25.10;42.40;;;;;;5052375;28;20032;-66
2022/10/15 05:16:37;;;;;;;5.05;0.88;;;25.00;47.80;;;;;;5049778;28;20079;-67
2022/10/15 05:19:06;;;;;;;3.85;0.80;;;24.60;49.10;;;;;;5043756;28;20028;-70
2022/10/15 05:21:35;;;;;;;5.97;0.88;;;24.40;49.80;;;;;;5047644;28;20494;-69
2022/10/15 05:24:02;;;;;;;6.18;0.90;;;24.20;51.30;;;;;;5056658;28;20401;-70
2022/10/15 05:26:31;;;;;;;4.80;0.70;;;24.30;51.80;;;;;;5054695;28;20037;-68
2022/10/15 05:28:59;;;;;;;3.80;0.73;;;24.30;50.80;;;;;;5055704;28;20036;-69
2022/10/15 05:31:29;;;;;;;1.83;0.55;;;24.10;50.90;;;;;;5057822;28;20025;-67
2022/10/15 05:33:56;;;;;;;2.47;0.70;;;24.00;52.10;;;;;;5062129;28;20024;-66
2022/10/15 05:36:29;;;;;;;6.65;1.50;;;23.80;52.50;;;;;;5047682;28;20032;-67
2022/10/15 05:38:59;;;;;;;2.40;0.60;;;23.70;52.10;;;;;;5054756;28;20036;-68
2022/10/15 05:41:27;;;;;;;2.58;0.77;;;23.40;53.50;;;;;;5055119;28;20470;-68
2022/10/15 05:43:56;;;;;;;2.70;0.60;;;23.20;53.80;;;;;;5051871;28;20029;-66
2022/10/15 05:46:23;;;;;;;9.38;1.40;;;23.10;55.30;;;;;;5061645;28;20089;-66
2022/10/15 05:48:52;;;;;;;5.55;1.42;;;23.10;54.80;;;;;;5053310;28;20029;-67
2022/10/15 05:51:20;;;;;;;4.65;0.90;;;23.10;55.20;;;;;;5050015;28;20070;-66
2022/10/15 05:53:50;;;;;;;2.97;0.75;;;23.00;55.80;;;;;;5057786;28;20099;-64
2022/10/15 05:56:18;;;;;;;5.65;1.30;;;22.70;56.00;;;;;;5059256;28;20025;-65
2022/10/15 05:58:45;;;;;;;9.68;1.52;;;22.50;57.60;;;;;;5056153;28;20032;-64
2022/10/15 06:01:13;;;;;;;2.33;0.90;;;22.40;58.50;;;;;;5064806;28;20458;-64
2022/10/15 06:03:41;;;;;;;6.65;0.77;;;22.40;59.40;;;;;;5049200;28;20028;-64
2022/10/15 06:06:17;;;;;;;4.55;0.80;;;22.50;59.50;;;;;;5058889;28;20048;-63
2022/10/15 06:08:44;;;;;;;4.55;0.63;;;22.30;59.50;;;;;;5056628;28;20057;-63
2022/10/15 06:11:12;;;;;;;3.25;1.48;;;22.30;60.70;;;;;;5053802;28;20017;-65
2022/10/15 06:13:41;;;;;;;3.25;0.98;;;22.30;59.60;;;;;;5055139;28;20058;-64
2022/10/15 06:16:10;;;;;;;4.82;0.63;;;22.20;60.20;;;;;;5062377;28;20048;-64
2022/10/15 06:18:37;;;;;;;5.65;1.15;;;22.10;60.30;;;;;;5054342;28;20394;-64
2022/10/15 06:21:06;;;;;;;3.15;0.63;;;22.00;61.10;;;;;;5066934;28;20020;-63
2022/10/15 06:23:34;;;;;;;1.48;0.50;;;21.90;61.40;;;;;;5035991;28;20023;-63
2022/10/15 06:26:06;;;;;;;4.35;1.17;;;21.80;62.50;;;;;;5052836;28;20017;-63
2022/10/15 06:28:34;;;;;;;5.47;0.88;;;21.90;61.90;;;;;;5053019;28;20049;-63
2022/10/15 06:31:02;;;;;;;2.67;0.47;;;21.90;62.70;;;;;;5051888;28;20032;-64
2022/10/15 06:33:30;;;;;;;5.57;0.63;;;21.90;61.90;;;;;;5066888;28;20040;-64
2022/10/15 06:36:17;;;;;;;2.53;0.75;;;21.90;61.90;;;;;;5048662;28;20029;-63
2022/10/15 06:38:46;;;;;;;3.33;0.88;;;21.80;62.00;;;;;;5047919;28;20029;-63
2022/10/15 06:41:13;;;;;;;1.60;0.43;;;21.70;61.70;;;;;;5062050;28;20033;-63
2022/10/15 06:43:40;;;;;;;1.40;0.35;;;21.60;62.70;;;;;;5056864;28;20036;-63
2022/10/15 06:46:08;;;;;;;5.93;1.10;;;21.30;62.80;;;;;;5056865;28;20037;-63
2022/10/15 06:48:35;;;;;;;5.32;0.50;;;21.30;64.30;;;;;;5056400;28;20108;-64
2022/10/15 06:51:03;;;;;;;6.22;1.00;;;21.20;64.90;;;;;;5057197;28;20048;-64
2022/10/15 06:53:30;;;;;;;3.00;0.80;;;21.20;65.60;;;;;;5065106;28;20119;-64
2022/10/15 06:56:00;;;;;;;3.28;1.05;;;21.10;65.70;;;;;;5057183;28;20092;-64
2022/10/15 06:58:28;;;;;;;4.90;0.75;;;20.90;65.70;;;;;;5055505;28;20079;-64
2022/10/15 07:01:04;;;;;;;2.45;0.40;;;20.80;66.10;;;;;;5061694;28;20033;-63
2022/10/15 07:03:32;;;;;;;5.30;0.60;;;20.70;66.60;;;;;;5063953;28;20104;-65
2022/10/15 07:06:03;;;;;;;1.67;0.93;;;20.60;68.00;;;;;;5037627;28;20120;-69
2022/10/15 07:08:31;;;;;;;2.35;0.77;;;20.60;67.50;;;;;;5039679;28;20025;-64
2022/10/15 07:11:02;;;;;;;10.95;1.00;;;20.60;67.80;;;;;;5046345;28;20017;-64
2022/10/15 07:13:30;;;;;;;2.65;0.55;;;20.40;67.60;;;;;;5063827;28;20032;-65
2022/10/15 07:15:57;;;;;;;2.38;0.65;;;20.30;68.00;;;;;;5054855;28;20103;-63
2022/10/15 07:18:24;;;;;;;2.92;0.73;;;20.30;68.50;;;;;;5045691;28;20083;-63
2022/10/15 07:20:51;;;;;;;4.57;0.70;;;20.10;69.30;;;;;;5048550;28;20029;-63
2022/10/15 07:23:19;;;;;;;3.83;0.70;;;20.10;70.50;;;;;;5057459;28;20400;-64
2022/10/15 07:25:46;;;;;;;7.97;1.73;;;19.90;71.40;;;;;;5062850;28;20040;-64
2022/10/15 07:28:13;;;;;;;4.45;0.70;;;19.90;71.40;;;;;;5047861;28;20029;-63
2022/10/15 07:30:40;;;;;;;4.45;0.60;;;19.80;71.70;;;;;;5052642;28;20021;-64
2022/10/15 07:33:08;;;;;;;2.22;0.55;;;19.70;72.70;;;;;;5050891;28;20043;-64
2022/10/15 07:35:37;;;;;;;3.67;0.90;;;19.60;73.60;;;;;;5048858;28;20024;-64
2022/10/15 07:38:04;;;;;;;3.85;0.50;;;19.50;74.70;;;;;;5047615;28;20025;-59
2022/10/15 07:40:31;;;;;;;3.08;0.70;;;19.40;75.70;;;;;;5041315;28;20489;-60
2022/10/15 07:42:59;;;;;;;9.18;0.70;;;19.30;76.70;;;;;;5049343;28;20017;-64
2022/10/15 07:45:27;;;;;;;5.57;0.68;;;19.20;77.60;;;;;;5066059;28;20017;-62
2022/10/15 07:47:54;;;;;;;1.02;0.40;;;19.10;78.10;;;;;;5050076;28;20486;-61
2022/10/15 07:50:22;;;;;;;5.35;1.75;;;19.00;79.10;;;;;;5056098;28;20103;-60
2022/10/15 07:52:49;;;;;;;7.07;1.00;;;18.90;79.90;;;;;;5054153;28;20848;-59
2022/10/15 07:55:16;;;;;;;5.07;0.70;;;18.80;80.20;;;;;;5058063;28;20104;-59
2022/10/15 07:57:44;;;;;;;2.97;0.80;;;18.70;79.90;;;;;;5051919;28;20024;-59
2022/10/15 08:00:11;;;;;;;4.55;1.05;;;18.60;80.60;;;;;;5052196;28;20108;-59
2022/10/15 08:02:39;;;;;;;5.15;0.82;;;18.50;81.00;;;;;;5056555;28;20489;-60
2022/10/15 08:05:07;;;;;;;2.92;1.00;;;18.40;81.40;;;;;;5044151;28;20104;-59
2022/10/15 08:07:34;;;;;;;4.50;1.45;;;18.30;82.10;;;;;;5039344;28;20036;-59
2022/10/15 08:10:04;;;;;;;4.15;0.80;;;18.20;82.80;;;;;;5040191;28;20017;-59
2022/10/15 08:12:31;;;;;;;4.45;1.75;;;18.10;82.40;;;;;;5052833;28;20069;-59
2022/10/15 08:14:58;;;;;;;5.57;1.20;;;18.10;82.80;;;;;;5050634;28;20104;-60
2022/10/15 08:17:26;;;;;;;4.20;1.63;;;18.00;83.40;;;;;;5049395;28;20051;-61
2022/10/15 08:19:54;;;;;;;1.55;0.60;;;18.00;83.50;;;;;;5050176;28;20021;-59
2022/10/15 08:22:21;;;;;;;3.28;0.70;;;17.90;83.50;;;;;;5046057;28;20026;-59
2022/10/15 08:24:48;;;;;;;3.13;0.77;;;17.80;83.60;;;;;;5055264;28;20556;-60
2022/10/15 08:27:15;;;;;;;2.28;0.60;;;17.80;84.00;;;;;;5050313;28;20076;-59
2022/10/15 08:29:43;;;;;;;3.55;0.80;;;17.60;84.20;;;;;;5051873;28;20391;-58
2022/10/15 08:32:11;;;;;;;3.60;0.80;;;17.40;85.50;;;;;;5047181;28;20025;-59
2022/10/15 08:34:38;;;;;;;5.05;0.80;;;17.20;87.40;;;;;;5045267;28;20041;-59
2022/10/15 08:37:06;;;;;;;4.00;0.82;;;17.10;88.00;;;;;;5050184;28;20445;-59
2022/10/15 08:39:33;;;;;;;2.55;0.70;;;17.00;88.70;;;;;;5048419;28;20053;-59
2022/10/15 08:42:05;;;;;;;3.08;0.60;;;16.80;89.40;;;;;;5059717;28;20042;-59
2022/10/15 08:44:42;;;;;;;4.95;1.25;;;16.70;89.70;;;;;;5060758;28;20032;-59
2022/10/15 08:47:31;;;;;;;1.60;0.73;;;16.50;90.40;;;;;;5050344;28;20075;-59
2022/10/15 08:50:16;;;;;;;4.75;0.90;;;16.40;90.60;;;;;;5048151;28;20032;-59
2022/10/15 08:52:48;;;;;;;3.58;0.55;;;16.40;90.70;;;;;;5049466;28;20088;-59
2022/10/15 08:55:19;;;;;;;2.58;0.88;;;16.50;90.70;;;;;;5058297;28;20052;-60
2022/10/15 08:57:55;;;;;;;5.07;1.45;;;16.50;90.40;;;;;;5047028;28;20040;-60
2022/10/15 09:00:40;;;;;;;4.45;0.82;;;16.40;90.50;;;;;;5073250;28;20032;-59
2022/10/15 09:03:33;;;;;;;4.47;0.68;;;16.30;90.90;;;;;;5063833;28;20484;-59
2022/10/15 09:06:28;;;;;;;3.75;1.42;;;16.20;91.20;;;;;;5048193;28;20025;-60
2022/10/15 09:09:11;;;;;;;5.28;1.23;;;15.90;91.30;;;;;;5051643;28;20086;-60
2022/10/15 09:12:03;;;;;;;6.72;1.17;;;15.70;91.50;;;;;;5047498;28;20036;-61
2022/10/15 09:14:38;;;;;;;4.13;1.10;;;15.50;92.00;;;;;;5049029;28;20490;-60
2022/10/15 09:17:20;;;;;;;8.40;3.65;;;15.30;92.40;;;;;;5052136;28;20021;-58
2022/10/15 09:19:52;;;;;;;4.57;1.70;;;15.20;92.70;;;;;;5049680;28;20025;-60
2022/10/15 09:22:24;;;;;;;3.88;1.17;;;15.00;93.00;;;;;;5051323;28;20033;-60
2022/10/15 09:24:52;;;;;;;12.05;1.42;;;14.90;93.70;;;;;;5050015;28;20028;-59
2022/10/15 09:27:35;;;;;;;2.42;0.85;;;14.80;94.40;;;;;;5046475;28;20401;-60
2022/10/15 09:30:05;;;;;;;3.33;0.98;;;14.70;94.80;;;;;;5050126;28;20032;-61
2022/10/15 09:32:48;;;;;;;2.97;1.20;;;14.60;94.80;;;;;;5053627;28;20028;-60
2022/10/15 09:35:18;;;;;;;5.60;1.20;;;14.50;94.60;;;;;;5040373;28;20485;-67
2022/10/15 09:38:18;;;;;;;5.05;1.65;;;14.40;94.90;;;;;;5050947;28;20473;-66
2022/10/15 09:41:15;;;;;;;6.05;1.23;;;14.40;95.30;;;;;;5051226;28;20143;-66
2022/10/15 09:43:46;;;;;;;6.70;1.30;;;14.30;96.10;;;;;;5039778;28;20022;-66
2022/10/15 09:46:13;;;;;;;4.28;1.00;;;14.20;96.20;;;;;;5044515;28;20021;-66
2022/10/15 09:48:47;;;;;;;3.00;1.70;;;14.10;95.90;;;;;;5049995;28;20539;-66
2022/10/15 09:51:44;;;;;;;7.35;1.30;;;14.10;96.10;;;;;;5048647;28;20409;-66
2022/10/15 09:54:20;;;;;;;4.72;1.00;;;14.10;96.50;;;;;;5032052;28;20186;-66
2022/10/15 09:56:54;;;;;;;6.30;1.00;;;14.20;96.70;;;;;;5051660;28;20037;-63
2022/10/15 09:59:23;;;;;;;3.28;0.80;;;14.20;96.70;;;;;;5045528;28;20060;-63
2022/10/15 10:02:17;;;;;;;4.65;1.38;;;14.20;96.80;;;;;;5054476;28;20025;-62
2022/10/15 10:04:44;;;;;;;5.68;0.93;;;14.20;96.80;;;;;;5047743;28;20459;-63
2022/10/15 10:07:37;;;;;;;3.42;0.82;;;14.20;96.90;;;;;;5044537;28;20532;-63
2022/10/15 10:10:27;;;;;;;3.50;1.13;;;14.20;97.10;;;;;;5037963;28;20025;-65
2022/10/15 10:12:58;;;;;;;5.25;0.70;;;14.10;97.70;;;;;;5049646;28;20056;-66
2022/10/15 10:15:40;;;;;;;4.38;1.02;;;14.00;98.00;;;;;;5061312;28;20100;-65
2022/10/15 10:18:22;;;;;;;4.70;1.20;;;14.00;97.80;;;;;;5049220;28;20082;-66
2022/10/15 10:20:57;;;;;;;3.90;1.02;;;13.80;98.10;;;;;;5054725;28;20044;-66
2022/10/15 10:23:36;;;;;;;2.45;1.50;;;13.70;98.60;;;;;;5038657;28;20024;-66
2022/10/15 10:26:09;;;;;;;20.30;5.47;;;13.70;98.90;;;;;;5054815;28;20021;-66
2022/10/15 10:28:55;;;;;;;8.05;2.03;;;13.60;99.10;;;;;;5048714;28;20032;-67
2022/10/15 10:31:34;;;;;;;2.40;1.00;;;13.50;99.90;;;;;;5051721;28;20129;-67
2022/10/15 10:34:02;;;;;;;7.55;1.83;;;13.50;99.90;;;;;;5053731;28;20086;-67
2022/10/15 10:36:33;;;;;;;6.45;2.47;;;13.50;99.90;;;;;;5046622;28;20025;-67
2022/10/15 10:39:12;;;;;;;5.30;1.00;;;13.50;99.90;;;;;;5047536;28;20040;-67
2022/10/15 10:41:58;;;;;;;10.00;0.98;;;13.60;99.90;;;;;;5035575;28;20036;-67
2022/10/15 10:44:37;;;;;;;4.40;0.73;;;13.60;99.90;;;;;;5038203;28;20063;-67
2022/10/15 10:47:12;;;;;;;7.10;1.25;;;13.70;99.90;;;;;;5050042;28;20382;-67
2022/10/15 10:49:45;;;;;;;5.53;1.05;;;13.90;99.90;;;;;;5047296;28;20029;-67
2022/10/15 10:52:26;;;;;;;5.25;1.08;;;14.10;99.90;;;;;;5049538;28;20048;-68
2022/10/15 10:55:06;;;;;;;3.88;0.90;;;14.20;99.90;;;;;;5049529;28;20163;-67
2022/10/15 10:57:39;;;;;;;7.05;0.95;;;14.40;99.90;;;;;;5055571;28;20033;-67
2022/10/15 11:00:11;;;;;;;9.32;1.73;;;14.50;99.90;;;;;;5054883;28;20397;-68
2022/10/15 11:02:42;;;;;;;6.65;1.50;;;14.80;99.90;;;;;;5053746;28;20032;-67
2022/10/15 11:05:11;;;;;;;4.28;1.50;;;14.90;99.90;;;;;;5050177;28;20032;-67
2022/10/15 11:07:45;;;;;;;4.90;1.38;;;15.00;99.90;;;;;;5049590;28;20041;-67
2022/10/15 11:10:47;;;;;;;4.60;1.42;;;15.10;99.90;;;;;;5059241;28;20044;-67
2022/10/15 11:14:04;;;;;;;4.90;1.27;;;15.10;99.90;;;;;;5039528;28;20385;-66
2022/10/15 11:16:48;;;;;;;4.43;1.30;;;15.20;99.70;;;;;;5024124;28;20036;-67
2022/10/15 11:19:22;;;;;;;7.88;1.23;;;15.30;99.80;;;;;;5023644;28;20071;-67
2022/10/15 11:22:01;;;;;;;3.63;1.42;;;15.20;99.50;;;;;;5046265;28;20509;-68
2022/10/15 11:25:14;;;;;;;6.03;1.67;;;15.20;99.50;;;;;;5051810;28;20040;-66
2022/10/15 11:28:05;;;;;;;4.88;1.15;;;15.20;99.30;;;;;;5000533;28;20033;-67
2022/10/15 11:30:37;;;;;;;5.55;1.48;;;15.10;99.80;;;;;;4986842;28;20096;-65
2022/10/15 11:33:43;;;;;;;3.72;1.08;;;15.10;99.70;;;;;;5029118;28;20035;-67
2022/10/15 11:36:40;;;;;;;5.50;1.13;;;15.10;99.90;;;;;;5039429;28;20032;-67
2022/10/15 11:39:40;;;;;;;7.68;1.20;;;15.00;99.90;;;;;;5030145;28;20028;-67
2022/10/15 11:42:20;;;;;;;5.50;1.30;;;15.00;99.90;;;;;;5048907;28;20028;-67
2022/10/15 11:44:56;;;;;;;3.90;1.50;;;15.00;99.90;;;;;;5053453;28;20032;-66
2022/10/15 11:47:47;;;;;;;8.32;1.20;;;14.90;99.90;;;;;;5051923;28;20427;-67
2022/10/15 11:50:17;;;;;;;8.52;1.58;;;14.90;99.90;;;;;;5045572;28;20021;-66
2022/10/15 11:53:06;;;;;;;6.32;1.80;;;14.80;99.90;;;;;;5050106;28;20557;-66
2022/10/15 11:56:11;;;;;;;6.53;1.92;;;14.80;99.90;;;;;;5064735;28;20056;-67
2022/10/15 11:58:50;;;;;;;10.13;1.80;;;14.80;99.90;;;;;;5044412;28;20029;-67
2022/10/15 12:01:42;;;;;;;3.70;1.17;;;14.80;99.90;;;;;;5038778;28;20060;-67
2022/10/15 12:04:27;;;;;;;10.45;1.92;;;14.90;99.90;;;;;;5042934;28;20065;-66
2022/10/15 12:06:56;;;;;;;7.22;2.67;;;14.90;99.90;;;;;;5043861;28;20454;-66
2022/10/15 12:09:31;;;;;;;3.60;1.23;;;14.90;99.90;;;;;;5048866;28;20830;-66
2022/10/15 12:12:11;;;;;;;4.78;1.63;;;14.90;99.90;;;;;;5037855;28;20046;-67
2022/10/15 12:14:52;;;;;;;6.70;1.70;;;15.00;99.90;;;;;;5045373;28;20029;-67
2022/10/15 12:17:44;;;;;;;5.35;1.23;;;15.00;99.90;;;;;;5042168;28;20037;-68
2022/10/15 12:20:20;;;;;;;7.75;1.23;;;15.10;99.90;;;;;;5044322;28;20079;-66
2022/10/15 12:22:49;;;;;;;7.55;1.30;;;15.10;99.90;;;;;;5048004;28;20017;-66
2022/10/15 12:25:34;;;;;;;6.05;1.95;;;15.20;99.90;;;;;;5050671;28;20027;-67
2022/10/15 12:28:11;;;;;;;5.00;1.30;;;15.30;99.90;;;;;;5047639;28;20033;-67
2022/10/15 12:30:41;;;;;;;4.43;1.27;;;15.40;99.90;;;;;;5058677;28;20029;-67
2022/10/15 12:33:28;;;;;;;9.00;1.42;;;15.50;99.90;;;;;;5047310;28;20024;-67
2022/10/15 12:35:58;;;;;;;4.05;1.10;;;15.60;99.90;;;;;;5047617;28;20082;-69
2022/10/15 12:38:39;;;;;;;6.60;1.90;;;15.60;99.90;;;;;;5049376;28;20121;-68
2022/10/15 12:41:11;;;;;;;5.13;1.10;;;15.70;99.80;;;;;;5062297;28;20025;-64
2022/10/15 12:43:44;;;;;;;5.45;1.35;;;15.70;99.70;;;;;;5054951;28;20021;-66
2022/10/15 12:46:13;;;;;;;5.93;1.40;;;15.80;99.60;;;;;;5042998;28;20029;-66
2022/10/15 12:48:46;;;;;;;5.13;1.33;;;15.80;99.40;;;;;;5044848;28;20037;-66
2022/10/15 12:51:16;;;;;;;3.88;1.35;;;15.90;99.30;;;;;;5037317;28;20128;-67
2022/10/15 12:53:46;;;;;;;8.80;1.08;;;15.80;99.00;;;;;;5045824;28;20033;-67
2022/10/15 12:56:22;;;;;;;5.97;1.30;;;15.90;98.90;;;;;;5042398;28;20025;-66
2022/10/15 12:58:55;;;;;;;8.40;2.35;;;15.90;98.70;;;;;;5046565;28;20635;-67
2022/10/15 13:01:22;;;;;;;5.50;1.50;;;15.80;98.50;;;;;;5046474;28;20328;-66
2022/10/15 13:03:49;;;;;;;4.13;1.67;;;15.90;98.60;;;;;;5049831;28;20028;-67
2022/10/15 13:06:25;;;;;;;6.28;1.45;;;15.90;98.80;;;;;;5047310;28;20038;-66
2022/10/15 13:09:00;;;;;;;5.32;1.48;;;15.90;98.80;;;;;;5063182;28;20655;-66
2022/10/15 13:11:45;;;;;;;5.63;1.30;;;15.90;98.90;;;;;;5049550;28;20135;-66
2022/10/15 13:14:15;;;;;;;6.75;1.60;;;15.90;98.70;;;;;;5045781;28;20036;-66
2022/10/15 13:16:44;;;;;;;5.20;1.30;;;15.90;98.90;;;;;;5043608;28;20051;-66
2022/10/15 13:19:23;;;;;;;2.88;0.88;;;15.90;98.90;;;;;;5047610;28;20063;-66